Terminal Aerodrome Forecast
Issued by NWS

Home | Current Version | Previous Version | Text Only | Print | Product List | Glossary On
Versions: 1 2 3 4 5 6 7 8 9 10 11 12 13
000
FTUS45 KTFX 241100
TAFGTF
TAF
KGTF 241135Z 2412/2512 22011KT P6SM FEW090
     FM241600 22015G25KT P6SM SCT090
     FM250600 22005KT P6SM FEW090=

USA.gov is the U.S. government's official web portal to all federal, state and local government web resources and services.